Saint Francis, AR

3:40 PM CDT on August 27, 2014 (GMT -0500)
Corning | Change Station
CLOSE
Current Station
Airport
Location: Corning,
Elevation: 292 ft
Nearby Weather Stations

Elev 292 ft 36.40 °N, 90.65 °W | Updated 5 minutes ago

Light Rain
Light Rain
91 °F
Feels Like 100 °F
N
8
Wind Variable Wind from ESE

Today
High -- | Low -- °F
--% Chance of Precip.
Yesterday
High -- | Low -- °F
Precip. -- in
6:27 AM 7:35 PM
Waxing Crescent, 5% visible
Pressure 30.04 in
Visibility 9.0 miles
Clouds
Heat Index 100 °F
Dew Point 73 °F
Humidity 55%
Rainfall 0.11 in
Snow Depth Not available.
UV Not available.
Pollen 10.60 out of 12
Air Quality Not available.
Flu Activity Not available.
METAR K4M9 272035Z AUTO 11007KT 9SM -RA 33/23 A3004 RMK AO2 P0001

More Conditions Fewer Conditions

Pressure 30.04 in
Visibility 9.0 miles
Clouds
Heat Index 100 °F
Dew Point 73 °F
Humidity 55%
Rainfall 0.11 in
Snow Depth Not available.
UV Not available.
Pollen 10.60 out of 12
Air Quality Not available.
Flu Activity Not available.
METAR K4M9 272035Z AUTO 11007KT 9SM -RA 33/23 A3004 RMK AO2 P0001

More Conditions Fewer Conditions

10-Day Weather Forecast

Almanac

Astronomy

Aug. 27, 2014 Rise Set
Actual Time 6:27 AM CDT 7:35 PM CDT
Civil Twilight 6:01 AM CDT 8:02 PM CDT
Nautical Twilight 5:29 AM CDT 8:33 PM CDT
Astronomical Twilight 4:56 AM CDT 9:06 PM CDT
Moon 8:19 AM CDT 8:33 PM CDT
Length of Visible Light 14h 00m
Length of Day
13h 07m
Tomorrow will be 2m 11s shorter.
Waxing Crescent, 5% of the Moon is Illuminated
Today
Waxing Crescent
Sep 2
First Quarter
Sep 8
Full
Sep 15
Last Quarter
Sep 24
New

Today's Extremes

State Highs State Lows

Community

WunderPhotos

Upload Photos

1,747,781 photos uploaded!

Nearby

Snow Depth

Station Depth Elevation
No new snow has been reported.

Earthquake Activity

City Distance Mag. Time & Date
No recent earthquake activity has been reported nearby.
Minimum magnitude displayed is 2.5.

Coastal Water Temperatures

Place Temperature
No Stations Reporting

Nearby Weather Stations